Butes — A8UR6 — position and weather

sailwx.info

Track history (hours):
 
Tides and Currents Weather Stations Pressure Air Temp Water Temp Dewpoint Dewpoint Depression Visibility Wind Speed Wind Dir Waves Ship Positions

Butes

Last reported at 2015-Aug-16 20:09 UTC. Time now 2015-Sep-01 12:13 UTC.
Position N 36°30' W 001°40'.
Warning: this ship's position is 15 days out of date.

Length 90 m; draft 5.1 m.

Type: Cargo ship. MMSI: 636091937.

Date/timePositionNaut miles runAvg speedWind from/ knotsBaromVisibWave heightAir tempDewpointWater temp
2015-Aug-16 20:09N 36°30' W 001°40'35 9.6
2015-Aug-16 16:33N 36°35' W 000°58'10 9.5
2015-Aug-16 15:33N 36°37' W 000°46'416 8.1
2015-Aug-14 12:30N 37°43' E 007°49'52 8.4
2015-Aug-14 06:16N 37°51' E 008°55'6 9.0
2015-Aug-14 05:33N 37°52' E 009°03'8 8.2
2015-Aug-14 04:33N 37°53' E 009°13'8 8.4
2015-Aug-14 03:32N 37°55' E 009°24'9 8.7
2015-Aug-14 02:32N 37°56' E 009°35'9 8.7
2015-Aug-14 01:33N 37°57' E 009°46'9 8.7
2015-Aug-14 00:33N 37°59' E 009°56'9 8.8
2015-Aug-13 23:33N 38°00' E 010°07'35 8.7
2015-Aug-13 19:33N 38°06' E 010°51'119 9.1
2015-Aug-13 06:26N 38°25' E 013°20'  
Track history (hours):
 
Tides and Currents Weather Stations Pressure Air Temp Water Temp Dewpoint Dewpoint Depression Visibility Wind Speed Wind Dir Waves Ship Positions

Butes

Last reported at 2015-Aug-16 20:09 UTC. Time now 2015-Sep-01 12:13 UTC.
Position N 36°30' W 001°40'.
Warning: this ship's position is 15 days out of date.

Length 90 m; draft 5.1 m.

Type: Cargo ship. MMSI: 636091937.

Date/timePositionNaut miles runAvg speedWind from/ knotsBaromVisibWave heightAir tempDewpointWater temp
2015-Aug-16 20:09N 36°30' W 001°40'35 9.6
2015-Aug-16 16:33N 36°35' W 000°58'10 9.5
2015-Aug-16 15:33N 36°37' W 000°46'416 8.1
2015-Aug-14 12:30N 37°43' E 007°49'52 8.4
2015-Aug-14 06:16N 37°51' E 008°55'6 9.0
2015-Aug-14 05:33N 37°52' E 009°03'8 8.2
2015-Aug-14 04:33N 37°53' E 009°13'8 8.4
2015-Aug-14 03:32N 37°55' E 009°24'9 8.7
2015-Aug-14 02:32N 37°56' E 009°35'9 8.7
2015-Aug-14 01:33N 37°57' E 009°46'9 8.7
2015-Aug-14 00:33N 37°59' E 009°56'9 8.8
2015-Aug-13 23:33N 38°00' E 010°07'35 8.7
2015-Aug-13 19:33N 38°06' E 010°51'119 9.1
2015-Aug-13 06:26N 38°25' E 013°20'  

Dump ship's entire track history